sensor_id;sensor_type;location;lat;lon;timestamp;temperature;humidity
38265;DHT22;24062;47.480;8.768;2023-05-10T00:02:08;12.40;99.90
38265;DHT22;24062;47.480;8.768;2023-05-10T00:04:35;12.30;99.90
38265;DHT22;24062;47.480;8.768;2023-05-10T00:07:03;12.30;99.90
38265;DHT22;24062;47.480;8.768;2023-05-10T00:09:30;12.30;99.90
38265;DHT22;24062;47.480;8.768;2023-05-10T00:11:57;12.30;99.90
38265;DHT22;24062;47.480;8.768;2023-05-10T00:14:24;12.40;99.90
38265;DHT22;24062;47.480;8.768;2023-05-10T00:16:51;12.30;99.90
38265;DHT22;24062;47.480;8.768;2023-05-10T00:19:18;12.40;99.90
38265;DHT22;24062;47.480;8.768;2023-05-10T00:21:45;12.40;99.90
38265;DHT22;24062;47.480;8.768;2023-05-10T00:24:13;12.40;99.90
38265;DHT22;24062;47.480;8.768;2023-05-10T00:26:40;12.40;99.90
38265;DHT22;24062;47.480;8.768;2023-05-10T00:29:07;12.40;99.90
38265;DHT22;24062;47.480;8.768;2023-05-10T00:31:34;12.30;99.90
38265;DHT22;24062;47.480;8.768;2023-05-10T00:34:01;12.30;99.90
38265;DHT22;24062;47.480;8.768;2023-05-10T00:36:28;12.30;99.90
38265;DHT22;24062;47.480;8.768;2023-05-10T00:38:56;12.30;99.90
38265;DHT22;24062;47.480;8.768;2023-05-10T00:41:24;12.20;99.90
38265;DHT22;24062;47.480;8.768;2023-05-10T00:43:51;12.20;99.90
38265;DHT22;24062;47.480;8.768;2023-05-10T00:46:18;12.20;99.90
38265;DHT22;24062;47.480;8.768;2023-05-10T00:48:45;12.20;99.90
38265;DHT22;24062;47.480;8.768;2023-05-10T00:51:13;12.20;99.90
38265;DHT22;24062;47.480;8.768;2023-05-10T00:53:40;12.20;99.90
38265;DHT22;24062;47.480;8.768;2023-05-10T00:56:07;12.20;99.90
38265;DHT22;24062;47.480;8.768;2023-05-10T00:58:36;12.20;99.90
38265;DHT22;24062;47.480;8.768;2023-05-10T01:01:04;12.20;99.90
38265;DHT22;24062;47.480;8.768;2023-05-10T01:03:32;12.20;99.90
38265;DHT22;24062;47.480;8.768;2023-05-10T01:05:59;12.10;99.90
38265;DHT22;24062;47.480;8.768;2023-05-10T01:08:26;12.20;99.90
38265;DHT22;24062;47.480;8.768;2023-05-10T01:10:54;12.20;99.90
38265;DHT22;24062;47.480;8.768;2023-05-10T01:13:29;12.20;99.90
38265;DHT22;24062;47.480;8.768;2023-05-10T01:15:58;12.20;99.90
38265;DHT22;24062;47.480;8.768;2023-05-10T01:18:28;12.20;99.90
38265;DHT22;24062;47.480;8.768;2023-05-10T01:21:04;12.10;99.90
38265;DHT22;24062;47.480;8.768;2023-05-10T01:23:51;12.20;99.90
38265;DHT22;24062;47.480;8.768;2023-05-10T01:26:53;12.20;99.90
38265;DHT22;24062;47.480;8.768;2023-05-10T01:29:43;12.10;99.90
38265;DHT22;24062;47.480;8.768;2023-05-10T01:32:23;12.10;99.90
38265;DHT22;24062;47.480;8.768;2023-05-10T01:35:00;12.00;99.90
38265;DHT22;24062;47.480;8.768;2023-05-10T01:37:34;12.00;99.90
38265;DHT22;24062;47.480;8.768;2023-05-10T01:40:08;12.00;99.90
38265;DHT22;24062;47.480;8.768;2023-05-10T01:42:40;11.90;99.90
38265;DHT22;24062;47.480;8.768;2023-05-10T01:45:14;12.00;99.90
38265;DHT22;24062;47.480;8.768;2023-05-10T01:47:50;12.00;99.90
38265;DHT22;24062;47.480;8.768;2023-05-10T01:50:24;12.00;99.90
38265;DHT22;24062;47.480;8.768;2023-05-10T01:52:55;12.00;99.90
38265;DHT22;24062;47.480;8.768;2023-05-10T01:55:25;12.10;99.90
38265;DHT22;24062;47.480;8.768;2023-05-10T01:57:59;12.10;99.90
38265;DHT22;24062;47.480;8.768;2023-05-10T02:00:29;12.20;99.90
38265;DHT22;24062;47.480;8.768;2023-05-10T02:03:00;12.20;99.90
38265;DHT22;24062;47.480;8.768;2023-05-10T02:05:30;12.20;99.90
38265;DHT22;24062;47.480;8.768;2023-05-10T02:07:59;12.10;99.90
38265;DHT22;24062;47.480;8.768;2023-05-10T02:10:28;12.20;99.90
38265;DHT22;24062;47.480;8.768;2023-05-10T02:12:58;12.20;99.90
38265;DHT22;24062;47.480;8.768;2023-05-10T02:15:26;12.20;99.90
38265;DHT22;24062;47.480;8.768;2023-05-10T02:17:55;12.30;99.90
38265;DHT22;24062;47.480;8.768;2023-05-10T02:20:25;12.30;99.90
38265;DHT22;24062;47.480;8.768;2023-05-10T02:22:54;12.30;99.90
38265;DHT22;24062;47.480;8.768;2023-05-10T02:25:22;12.30;99.90
38265;DHT22;24062;47.480;8.768;2023-05-10T02:27:50;12.30;99.90
38265;DHT22;24062;47.480;8.768;2023-05-10T02:30:18;12.30;99.90
38265;DHT22;24062;47.480;8.768;2023-05-10T02:32:46;12.30;99.90
38265;DHT22;24062;47.480;8.768;2023-05-10T02:35:14;12.30;99.90
38265;DHT22;24062;47.480;8.768;2023-05-10T02:37:43;12.20;99.90
38265;DHT22;24062;47.480;8.768;2023-05-10T02:40:12;12.20;99.90
38265;DHT22;24062;47.480;8.768;2023-05-10T02:42:41;12.20;99.90
38265;DHT22;24062;47.480;8.768;2023-05-10T02:45:12;12.20;99.90
38265;DHT22;24062;47.480;8.768;2023-05-10T02:47:39;12.30;99.90
38265;DHT22;24062;47.480;8.768;2023-05-10T02:50:07;12.30;99.90
38265;DHT22;24062;47.480;8.768;2023-05-10T02:52:40;12.30;99.90
38265;DHT22;24062;47.480;8.768;2023-05-10T02:55:12;12.30;99.90
38265;DHT22;24062;47.480;8.768;2023-05-10T02:57:45;12.30;99.90
38265;DHT22;24062;47.480;8.768;2023-05-10T03:00:13;12.20;99.90
38265;DHT22;24062;47.480;8.768;2023-05-10T03:02:40;12.20;99.90
38265;DHT22;24062;47.480;8.768;2023-05-10T03:05:08;12.20;99.90
38265;DHT22;24062;47.480;8.768;2023-05-10T03:07:35;12.10;99.90
38265;DHT22;24062;47.480;8.768;2023-05-10T03:10:03;12.10;99.90
38265;DHT22;24062;47.480;8.768;2023-05-10T03:12:41;12.10;99.90
38265;DHT22;24062;47.480;8.768;2023-05-10T03:15:18;12.00;99.90
38265;DHT22;24062;47.480;8.768;2023-05-10T03:17:52;12.00;99.90
38265;DHT22;24062;47.480;8.768;2023-05-10T03:20:25;12.00;99.90
38265;DHT22;24062;47.480;8.768;2023-05-10T03:22:55;12.10;99.90
38265;DHT22;24062;47.480;8.768;2023-05-10T03:25:25;12.10;99.90
38265;DHT22;24062;47.480;8.768;2023-05-10T03:27:54;12.10;99.90
38265;DHT22;24062;47.480;8.768;2023-05-10T03:30:24;12.10;99.90
38265;DHT22;24062;47.480;8.768;2023-05-10T03:32:51;12.10;99.90
38265;DHT22;24062;47.480;8.768;2023-05-10T03:35:18;12.00;99.90
38265;DHT22;24062;47.480;8.768;2023-05-10T03:37:45;12.10;99.90
38265;DHT22;24062;47.480;8.768;2023-05-10T03:40:13;12.10;99.90
38265;DHT22;24062;47.480;8.768;2023-05-10T03:42:40;12.10;99.90
38265;DHT22;24062;47.480;8.768;2023-05-10T03:45:09;12.10;99.90
38265;DHT22;24062;47.480;8.768;2023-05-10T03:47:36;12.10;99.90
38265;DHT22;24062;47.480;8.768;2023-05-10T03:50:04;12.10;99.90
38265;DHT22;24062;47.480;8.768;2023-05-10T03:52:31;12.20;99.90
38265;DHT22;24062;47.480;8.768;2023-05-10T03:54:58;12.10;99.90
38265;DHT22;24062;47.480;8.768;2023-05-10T03:57:25;12.20;99.90
38265;DHT22;24062;47.480;8.768;2023-05-10T03:59:52;12.20;99.90
38265;DHT22;24062;47.480;8.768;2023-05-10T04:02:20;12.20;99.90
38265;DHT22;24062;47.480;8.768;2023-05-10T04:04:47;12.30;99.90
38265;DHT22;24062;47.480;8.768;2023-05-10T04:07:14;12.20;99.90
38265;DHT22;24062;47.480;8.768;2023-05-10T04:09:41;12.30;99.90
38265;DHT22;24062;47.480;8.768;2023-05-10T04:12:08;12.40;99.90
38265;DHT22;24062;47.480;8.768;2023-05-10T04:14:35;12.40;99.90
38265;DHT22;24062;47.480;8.768;2023-05-10T04:17:02;12.40;99.90
38265;DHT22;24062;47.480;8.768;2023-05-10T04:19:31;12.30;99.90
38265;DHT22;24062;47.480;8.768;2023-05-10T04:21:58;12.30;99.90
38265;DHT22;24062;47.480;8.768;2023-05-10T04:24:25;12.30;99.90
38265;DHT22;24062;47.480;8.768;2023-05-10T04:26:54;12.30;99.90
38265;DHT22;24062;47.480;8.768;2023-05-10T04:29:20;12.30;99.90
38265;DHT22;24062;47.480;8.768;2023-05-10T04:31:47;12.30;99.90
38265;DHT22;24062;47.480;8.768;2023-05-10T04:34:14;12.30;99.90
38265;DHT22;24062;47.480;8.768;2023-05-10T04:36:43;12.30;99.90
38265;DHT22;24062;47.480;8.768;2023-05-10T04:39:09;12.30;99.90
38265;DHT22;24062;47.480;8.768;2023-05-10T04:41:37;12.40;99.90
38265;DHT22;24062;47.480;8.768;2023-05-10T04:44:04;12.40;99.90
38265;DHT22;24062;47.480;8.768;2023-05-10T04:46:32;12.40;99.90
38265;DHT22;24062;47.480;8.768;2023-05-10T04:48:59;12.40;99.90
38265;DHT22;24062;47.480;8.768;2023-05-10T04:51:25;12.40;99.90
38265;DHT22;24062;47.480;8.768;2023-05-10T04:53:54;12.40;99.90
38265;DHT22;24062;47.480;8.768;2023-05-10T04:56:21;12.40;99.90
38265;DHT22;24062;47.480;8.768;2023-05-10T04:58:48;12.50;99.90
38265;DHT22;24062;47.480;8.768;2023-05-10T05:01:15;12.50;99.90
38265;DHT22;24062;47.480;8.768;2023-05-10T05:03:42;12.50;99.90
38265;DHT22;24062;47.480;8.768;2023-05-10T05:06:09;12.50;99.90
38265;DHT22;24062;47.480;8.768;2023-05-10T05:08:36;12.60;99.90
38265;DHT22;24062;47.480;8.768;2023-05-10T05:11:04;12.60;99.90
38265;DHT22;24062;47.480;8.768;2023-05-10T05:13:31;12.70;99.90
38265;DHT22;24062;47.480;8.768;2023-05-10T05:16:00;12.70;99.90
38265;DHT22;24062;47.480;8.768;2023-05-10T05:18:27;12.80;99.90
38265;DHT22;24062;47.480;8.768;2023-05-10T05:20:54;12.80;99.90
38265;DHT22;24062;47.480;8.768;2023-05-10T05:23:21;12.80;99.90
38265;DHT22;24062;47.480;8.768;2023-05-10T05:25:51;12.80;99.90
38265;DHT22;24062;47.480;8.768;2023-05-10T05:28:19;12.80;99.90
38265;DHT22;24062;47.480;8.768;2023-05-10T05:30:46;12.80;99.90
38265;DHT22;24062;47.480;8.768;2023-05-10T05:33:14;12.80;99.90
38265;DHT22;24062;47.480;8.768;2023-05-10T05:35:41;12.80;99.90
38265;DHT22;24062;47.480;8.768;2023-05-10T05:38:13;12.80;99.90
38265;DHT22;24062;47.480;8.768;2023-05-10T05:40:39;12.90;99.90
38265;DHT22;24062;47.480;8.768;2023-05-10T05:43:06;12.80;99.90
38265;DHT22;24062;47.480;8.768;2023-05-10T05:45:35;12.70;99.90
38265;DHT22;24062;47.480;8.768;2023-05-10T05:48:02;12.80;99.90
38265;DHT22;24062;47.480;8.768;2023-05-10T05:50:29;12.80;99.90
38265;DHT22;24062;47.480;8.768;2023-05-10T05:52:56;12.90;99.90
38265;DHT22;24062;47.480;8.768;2023-05-10T05:55:23;12.90;99.90
38265;DHT22;24062;47.480;8.768;2023-05-10T05:57:51;12.90;99.90
38265;DHT22;24062;47.480;8.768;2023-05-10T06:00:18;12.90;99.90
38265;DHT22;24062;47.480;8.768;2023-05-10T06:02:46;13.00;99.90
38265;DHT22;24062;47.480;8.768;2023-05-10T06:05:13;13.00;99.90
38265;DHT22;24062;47.480;8.768;2023-05-10T06:07:40;13.10;99.90
38265;DHT22;24062;47.480;8.768;2023-05-10T06:10:08;13.20;99.90
38265;DHT22;24062;47.480;8.768;2023-05-10T06:12:35;13.30;99.90
38265;DHT22;24062;47.480;8.768;2023-05-10T06:15:02;13.30;99.90
38265;DHT22;24062;47.480;8.768;2023-05-10T06:17:29;13.30;99.90
38265;DHT22;24062;47.480;8.768;2023-05-10T06:19:58;13.30;99.90
38265;DHT22;24062;47.480;8.768;2023-05-10T06:22:25;13.20;99.90
38265;DHT22;24062;47.480;8.768;2023-05-10T06:24:52;13.10;99.90
38265;DHT22;24062;47.480;8.768;2023-05-10T06:27:18;13.00;99.90
38265;DHT22;24062;47.480;8.768;2023-05-10T06:29:45;13.00;99.90
38265;DHT22;24062;47.480;8.768;2023-05-10T06:32:12;13.00;99.90
38265;DHT22;24062;47.480;8.768;2023-05-10T06:34:39;13.00;99.90
38265;DHT22;24062;47.480;8.768;2023-05-10T06:37:08;13.00;99.90
38265;DHT22;24062;47.480;8.768;2023-05-10T06:39:35;13.00;99.90
38265;DHT22;24062;47.480;8.768;2023-05-10T06:42:02;13.10;99.90
38265;DHT22;24062;47.480;8.768;2023-05-10T06:44:30;13.10;99.90
38265;DHT22;24062;47.480;8.768;2023-05-10T06:46:57;13.20;99.90
38265;DHT22;24062;47.480;8.768;2023-05-10T06:49:24;13.30;99.90
38265;DHT22;24062;47.480;8.768;2023-05-10T06:51:51;13.40;99.90
38265;DHT22;24062;47.480;8.768;2023-05-10T06:54:19;13.50;99.90
38265;DHT22;24062;47.480;8.768;2023-05-10T06:56:46;13.70;99.90
38265;DHT22;24062;47.480;8.768;2023-05-10T06:59:13;13.70;99.90
38265;DHT22;24062;47.480;8.768;2023-05-10T07:01:40;13.80;99.90
38265;DHT22;24062;47.480;8.768;2023-05-10T07:04:07;13.80;99.90
38265;DHT22;24062;47.480;8.768;2023-05-10T07:06:34;13.70;99.90
38265;DHT22;24062;47.480;8.768;2023-05-10T07:09:01;13.70;99.90
38265;DHT22;24062;47.480;8.768;2023-05-10T07:11:29;13.70;99.90
38265;DHT22;24062;47.480;8.768;2023-05-10T07:13:56;13.70;99.90
38265;DHT22;24062;47.480;8.768;2023-05-10T07:16:23;13.70;99.90
38265;DHT22;24062;47.480;8.768;2023-05-10T07:18:50;13.80;99.90
38265;DHT22;24062;47.480;8.768;2023-05-10T07:21:18;13.80;99.90
38265;DHT22;24062;47.480;8.768;2023-05-10T07:23:45;13.90;99.90
38265;DHT22;24062;47.480;8.768;2023-05-10T07:26:12;13.80;99.90
38265;DHT22;24062;47.480;8.768;2023-05-10T07:28:41;13.80;99.90
38265;DHT22;24062;47.480;8.768;2023-05-10T07:31:08;13.80;99.90
38265;DHT22;24062;47.480;8.768;2023-05-10T07:33:36;13.80;99.90
38265;DHT22;24062;47.480;8.768;2023-05-10T07:36:03;13.80;99.90
38265;DHT22;24062;47.480;8.768;2023-05-10T07:38:30;13.80;99.90
38265;DHT22;24062;47.480;8.768;2023-05-10T07:40:56;13.60;99.90
38265;DHT22;24062;47.480;8.768;2023-05-10T07:43:23;13.60;99.90
38265;DHT22;24062;47.480;8.768;2023-05-10T07:45:52;13.70;99.90
38265;DHT22;24062;47.480;8.768;2023-05-10T07:48:19;13.70;99.90
38265;DHT22;24062;47.480;8.768;2023-05-10T07:50:46;13.60;99.90
38265;DHT22;24062;47.480;8.768;2023-05-10T07:53:13;13.70;99.90
38265;DHT22;24062;47.480;8.768;2023-05-10T07:55:40;13.70;99.90
38265;DHT22;24062;47.480;8.768;2023-05-10T07:58:07;13.70;99.90
38265;DHT22;24062;47.480;8.768;2023-05-10T08:00:34;13.60;99.90
38265;DHT22;24062;47.480;8.768;2023-05-10T08:03:02;13.50;99.90
38265;DHT22;24062;47.480;8.768;2023-05-10T08:05:29;13.50;99.90
38265;DHT22;24062;47.480;8.768;2023-05-10T08:07:56;13.40;99.90
38265;DHT22;24062;47.480;8.768;2023-05-10T08:10:24;13.50;99.90
38265;DHT22;24062;47.480;8.768;2023-05-10T08:12:51;13.70;99.90
38265;DHT22;24062;47.480;8.768;2023-05-10T08:15:18;13.90;99.90
38265;DHT22;24062;47.480;8.768;2023-05-10T08:17:45;14.00;99.90
38265;DHT22;24062;47.480;8.768;2023-05-10T08:20:14;14.30;99.90
38265;DHT22;24062;47.480;8.768;2023-05-10T08:22:42;14.50;99.90
38265;DHT22;24062;47.480;8.768;2023-05-10T08:25:09;14.60;99.90
38265;DHT22;24062;47.480;8.768;2023-05-10T08:27:36;14.70;99.90
38265;DHT22;24062;47.480;8.768;2023-05-10T08:30:03;14.90;99.90
38265;DHT22;24062;47.480;8.768;2023-05-10T08:32:31;15.00;99.90
38265;DHT22;24062;47.480;8.768;2023-05-10T08:34:58;15.30;99.20
38265;DHT22;24062;47.480;8.768;2023-05-10T08:37:29;15.40;99.20
38265;DHT22;24062;47.480;8.768;2023-05-10T08:39:57;15.70;99.90
38265;DHT22;24062;47.480;8.768;2023-05-10T08:42:27;16.00;98.90
38265;DHT22;24062;47.480;8.768;2023-05-10T08:44:55;16.00;98.00
38265;DHT22;24062;47.480;8.768;2023-05-10T08:47:25;16.10;97.70
38265;DHT22;24062;47.480;8.768;2023-05-10T08:49:52;16.10;97.00
38265;DHT22;24062;47.480;8.768;2023-05-10T08:52:21;16.20;95.70
38265;DHT22;24062;47.480;8.768;2023-05-10T08:54:49;16.30;96.40
38265;DHT22;24062;47.480;8.768;2023-05-10T08:57:17;16.30;94.50
38265;DHT22;24062;47.480;8.768;2023-05-10T08:59:45;16.10;94.20
38265;DHT22;24062;47.480;8.768;2023-05-10T09:02:13;16.10;95.20
38265;DHT22;24062;47.480;8.768;2023-05-10T09:04:40;16.10;93.60
38265;DHT22;24062;47.480;8.768;2023-05-10T09:07:07;16.00;93.60
38265;DHT22;24062;47.480;8.768;2023-05-10T09:09:35;16.00;93.50
38265;DHT22;24062;47.480;8.768;2023-05-10T09:12:04;15.90;93.60
38265;DHT22;24062;47.480;8.768;2023-05-10T09:14:34;15.80;92.50
38265;DHT22;24062;47.480;8.768;2023-05-10T09:17:02;15.90;92.40
38265;DHT22;24062;47.480;8.768;2023-05-10T09:19:29;16.00;92.00
38265;DHT22;24062;47.480;8.768;2023-05-10T09:21:56;16.10;92.00
38265;DHT22;24062;47.480;8.768;2023-05-10T09:24:25;16.40;93.10
38265;DHT22;24062;47.480;8.768;2023-05-10T09:26:53;16.60;92.20
38265;DHT22;24062;47.480;8.768;2023-05-10T09:29:21;16.80;91.80
38265;DHT22;24062;47.480;8.768;2023-05-10T09:31:49;16.90;90.60
38265;DHT22;24062;47.480;8.768;2023-05-10T09:34:22;16.90;90.20
38265;DHT22;24062;47.480;8.768;2023-05-10T09:36:55;16.90;90.50
38265;DHT22;24062;47.480;8.768;2023-05-10T09:39:30;17.10;89.70
38265;DHT22;24062;47.480;8.768;2023-05-10T09:41:59;17.00;86.80
38265;DHT22;24062;47.480;8.768;2023-05-10T09:44:27;16.60;85.60
38265;DHT22;24062;47.480;8.768;2023-05-10T09:46:54;16.40;85.40
38265;DHT22;24062;47.480;8.768;2023-05-10T09:49:21;16.30;85.80
38265;DHT22;24062;47.480;8.768;2023-05-10T09:52:00;16.40;85.70
38265;DHT22;24062;47.480;8.768;2023-05-10T09:54:26;16.40;86.00
38265;DHT22;24062;47.480;8.768;2023-05-10T09:56:53;16.50;85.20
38265;DHT22;24062;47.480;8.768;2023-05-10T09:59:20;16.50;85.60
38265;DHT22;24062;47.480;8.768;2023-05-10T10:01:51;16.80;87.60
38265;DHT22;24062;47.480;8.768;2023-05-10T10:04:18;17.10;85.10
38265;DHT22;24062;47.480;8.768;2023-05-10T10:06:46;17.10;84.60
38265;DHT22;24062;47.480;8.768;2023-05-10T10:09:24;17.30;86.90
38265;DHT22;24062;47.480;8.768;2023-05-10T10:11:52;17.60;85.50
38265;DHT22;24062;47.480;8.768;2023-05-10T10:14:19;17.60;84.60
38265;DHT22;24062;47.480;8.768;2023-05-10T10:16:46;17.40;81.30
38265;DHT22;24062;47.480;8.768;2023-05-10T10:19:15;17.00;81.40
38265;DHT22;24062;47.480;8.768;2023-05-10T10:21:42;16.50;81.00
38265;DHT22;24062;47.480;8.768;2023-05-10T10:24:09;16.30;81.40
38265;DHT22;24062;47.480;8.768;2023-05-10T10:26:36;16.10;81.70
38265;DHT22;24062;47.480;8.768;2023-05-10T10:29:16;16.00;81.60
38265;DHT22;24062;47.480;8.768;2023-05-10T10:31:47;15.90;81.90
38265;DHT22;24062;47.480;8.768;2023-05-10T10:34:25;16.00;81.80
38265;DHT22;24062;47.480;8.768;2023-05-10T10:36:54;16.00;82.30
38265;DHT22;24062;47.480;8.768;2023-05-10T10:39:22;16.10;82.10
38265;DHT22;24062;47.480;8.768;2023-05-10T10:41:51;16.10;82.50
38265;DHT22;24062;47.480;8.768;2023-05-10T10:44:36;16.20;82.30
38265;DHT22;24062;47.480;8.768;2023-05-10T10:47:06;16.00;80.30
38265;DHT22;24062;47.480;8.768;2023-05-10T10:49:49;16.00;80.80
38265;DHT22;24062;47.480;8.768;2023-05-10T10:52:24;16.10;80.50
38265;DHT22;24062;47.480;8.768;2023-05-10T10:54:57;16.10;79.10
38265;DHT22;24062;47.480;8.768;2023-05-10T10:57:25;16.20;79.90
38265;DHT22;24062;47.480;8.768;2023-05-10T11:03:04;16.80;77.50
38265;DHT22;24062;47.480;8.768;2023-05-10T11:05:42;17.00;77.30
38265;DHT22;24062;47.480;8.768;2023-05-10T11:08:14;17.30;76.50
38265;DHT22;24062;47.480;8.768;2023-05-10T11:11:01;17.40;77.00
38265;DHT22;24062;47.480;8.768;2023-05-10T11:13:30;17.50;74.10
38265;DHT22;24062;47.480;8.768;2023-05-10T11:15:58;17.50;73.90
38265;DHT22;24062;47.480;8.768;2023-05-10T11:18:26;17.60;75.10
38265;DHT22;24062;47.480;8.768;2023-05-10T11:20:58;17.90;72.60
38265;DHT22;24062;47.480;8.768;2023-05-10T11:23:32;18.10;74.40
38265;DHT22;24062;47.480;8.768;2023-05-10T11:26:00;18.40;72.30
38265;DHT22;24062;47.480;8.768;2023-05-10T11:28:27;18.50;72.80
38265;DHT22;24062;47.480;8.768;2023-05-10T11:30:54;18.60;71.00
38265;DHT22;24062;47.480;8.768;2023-05-10T11:33:22;18.70;69.90
38265;DHT22;24062;47.480;8.768;2023-05-10T11:35:49;18.70;71.20
38265;DHT22;24062;47.480;8.768;2023-05-10T11:38:17;18.80;70.00
38265;DHT22;24062;47.480;8.768;2023-05-10T11:40:44;18.90;70.20
38265;DHT22;24062;47.480;8.768;2023-05-10T11:43:11;18.90;68.30
38265;DHT22;24062;47.480;8.768;2023-05-10T11:45:39;18.50;66.60
38265;DHT22;24062;47.480;8.768;2023-05-10T11:48:06;18.30;67.20
38265;DHT22;24062;47.480;8.768;2023-05-10T11:50:34;18.10;68.60
38265;DHT22;24062;47.480;8.768;2023-05-10T11:53:01;18.00;68.20
38265;DHT22;24062;47.480;8.768;2023-05-10T11:55:29;17.80;67.20
38265;DHT22;24062;47.480;8.768;2023-05-10T11:58:01;17.50;66.20
38265;DHT22;24062;47.480;8.768;2023-05-10T12:00:29;17.20;65.80
38265;DHT22;24062;47.480;8.768;2023-05-10T12:02:56;17.00;67.30
38265;DHT22;24062;47.480;8.768;2023-05-10T12:05:24;17.20;67.60
38265;DHT22;24062;47.480;8.768;2023-05-10T12:07:51;17.30;67.90
38265;DHT22;24062;47.480;8.768;2023-05-10T12:10:26;17.50;67.80
38265;DHT22;24062;47.480;8.768;2023-05-10T12:12:54;17.60;67.00
38265;DHT22;24062;47.480;8.768;2023-05-10T12:15:23;17.70;66.90
38265;DHT22;24062;47.480;8.768;2023-05-10T12:17:51;18.00;67.10
38265;DHT22;24062;47.480;8.768;2023-05-10T12:20:19;18.20;65.20
38265;DHT22;24062;47.480;8.768;2023-05-10T12:22:49;18.30;65.60
38265;DHT22;24062;47.480;8.768;2023-05-10T12:25:16;18.50;66.40
38265;DHT22;24062;47.480;8.768;2023-05-10T12:27:49;18.60;65.10
38265;DHT22;24062;47.480;8.768;2023-05-10T12:30:22;18.50;64.40
38265;DHT22;24062;47.480;8.768;2023-05-10T12:32:50;18.40;64.60
38265;DHT22;24062;47.480;8.768;2023-05-10T12:35:18;18.00;63.20
38265;DHT22;24062;47.480;8.768;2023-05-10T12:37:47;17.80;64.10
38265;DHT22;24062;47.480;8.768;2023-05-10T12:40:14;17.60;64.30
38265;DHT22;24062;47.480;8.768;2023-05-10T12:42:41;17.60;66.30
38265;DHT22;24062;47.480;8.768;2023-05-10T12:45:11;17.70;67.70
38265;DHT22;24062;47.480;8.768;2023-05-10T12:47:39;17.80;66.90
38265;DHT22;24062;47.480;8.768;2023-05-10T12:50:07;17.50;67.40
38265;DHT22;24062;47.480;8.768;2023-05-10T12:52:34;17.40;68.60
38265;DHT22;24062;47.480;8.768;2023-05-10T12:55:01;17.40;69.00
38265;DHT22;24062;47.480;8.768;2023-05-10T12:57:28;17.70;70.00
38265;DHT22;24062;47.480;8.768;2023-05-10T12:59:56;18.00;69.80
38265;DHT22;24062;47.480;8.768;2023-05-10T13:02:23;18.20;69.60
38265;DHT22;24062;47.480;8.768;2023-05-10T13:04:52;18.40;70.00
38265;DHT22;24062;47.480;8.768;2023-05-10T13:07:19;18.30;69.00
38265;DHT22;24062;47.480;8.768;2023-05-10T13:09:46;18.00;69.20
38265;DHT22;24062;47.480;8.768;2023-05-10T13:12:13;17.80;69.10
38265;DHT22;24062;47.480;8.768;2023-05-10T13:14:40;17.50;69.30
38265;DHT22;24062;47.480;8.768;2023-05-10T13:17:07;17.40;69.80
38265;DHT22;24062;47.480;8.768;2023-05-10T13:19:34;17.60;70.30
38265;DHT22;24062;47.480;8.768;2023-05-10T13:22:03;17.80;69.90
38265;DHT22;24062;47.480;8.768;2023-05-10T13:24:30;18.00;69.90
38265;DHT22;24062;47.480;8.768;2023-05-10T13:26:57;18.20;71.10
38265;DHT22;24062;47.480;8.768;2023-05-10T13:29:24;18.60;71.00
38265;DHT22;24062;47.480;8.768;2023-05-10T13:31:51;19.10;71.40
38265;DHT22;24062;47.480;8.768;2023-05-10T13:34:18;19.40;70.40
38265;DHT22;24062;47.480;8.768;2023-05-10T13:36:47;19.60;69.10
38265;DHT22;24062;47.480;8.768;2023-05-10T13:39:15;19.30;67.10
38265;DHT22;24062;47.480;8.768;2023-05-10T13:41:42;19.10;67.80
38265;DHT22;24062;47.480;8.768;2023-05-10T13:44:11;19.00;67.40
38265;DHT22;24062;47.480;8.768;2023-05-10T13:46:38;18.90;67.50
38265;DHT22;24062;47.480;8.768;2023-05-10T13:49:05;18.90;67.40
38265;DHT22;24062;47.480;8.768;2023-05-10T13:51:32;18.90;67.50
38265;DHT22;24062;47.480;8.768;2023-05-10T13:53:59;18.80;66.10
38265;DHT22;24062;47.480;8.768;2023-05-10T13:56:28;18.50;66.20
38265;DHT22;24062;47.480;8.768;2023-05-10T13:58:56;18.20;67.10
38265;DHT22;24062;47.480;8.768;2023-05-10T14:01:23;17.90;66.70
38265;DHT22;24062;47.480;8.768;2023-05-10T14:03:50;17.70;67.00
38265;DHT22;24062;47.480;8.768;2023-05-10T14:06:17;17.50;67.20
38265;DHT22;24062;47.480;8.768;2023-05-10T14:08:44;17.20;66.80
38265;DHT22;24062;47.480;8.768;2023-05-10T14:11:11;16.80;67.40
38265;DHT22;24062;47.480;8.768;2023-05-10T14:13:39;16.50;68.40
38265;DHT22;24062;47.480;8.768;2023-05-10T14:16:06;16.30;69.10
38265;DHT22;24062;47.480;8.768;2023-05-10T14:18:33;16.20;69.80
38265;DHT22;24062;47.480;8.768;2023-05-10T14:21:02;16.20;70.20
38265;DHT22;24062;47.480;8.768;2023-05-10T14:23:29;16.20;70.60
38265;DHT22;24062;47.480;8.768;2023-05-10T14:25:56;16.40;71.50
38265;DHT22;24062;47.480;8.768;2023-05-10T14:28:23;16.90;72.60
38265;DHT22;24062;47.480;8.768;2023-05-10T14:30:51;17.40;73.00
38265;DHT22;24062;47.480;8.768;2023-05-10T14:33:18;18.10;72.10
38265;DHT22;24062;47.480;8.768;2023-05-10T14:35:46;18.90;73.00
38265;DHT22;24062;47.480;8.768;2023-05-10T14:38:13;19.80;72.50
38265;DHT22;24062;47.480;8.768;2023-05-10T14:40:41;19.80;69.60
38265;DHT22;24062;47.480;8.768;2023-05-10T14:43:08;19.60;67.90
38265;DHT22;24062;47.480;8.768;2023-05-10T14:45:35;19.30;68.00
38265;DHT22;24062;47.480;8.768;2023-05-10T14:48:03;18.90;67.10
38265;DHT22;24062;47.480;8.768;2023-05-10T14:50:31;18.40;67.50
38265;DHT22;24062;47.480;8.768;2023-05-10T14:52:58;18.00;67.40
38265;DHT22;24062;47.480;8.768;2023-05-10T14:55:25;17.60;67.70
38265;DHT22;24062;47.480;8.768;2023-05-10T14:57:52;17.30;68.30
38265;DHT22;24062;47.480;8.768;2023-05-10T15:00:20;17.20;68.80
38265;DHT22;24062;47.480;8.768;2023-05-10T15:02:47;17.20;69.30
38265;DHT22;24062;47.480;8.768;2023-05-10T15:05:16;17.20;69.50
38265;DHT22;24062;47.480;8.768;2023-05-10T15:07:43;16.90;68.90
38265;DHT22;24062;47.480;8.768;2023-05-10T15:10:10;16.60;70.10
38265;DHT22;24062;47.480;8.768;2023-05-10T15:12:38;16.40;70.10
38265;DHT22;24062;47.480;8.768;2023-05-10T15:15:06;16.20;70.20
38265;DHT22;24062;47.480;8.768;2023-05-10T15:17:33;16.00;70.60
38265;DHT22;24062;47.480;8.768;2023-05-10T15:20:00;16.00;71.20
38265;DHT22;24062;47.480;8.768;2023-05-10T15:22:29;16.20;72.20
38265;DHT22;24062;47.480;8.768;2023-05-10T15:24:57;16.40;73.20
38265;DHT22;24062;47.480;8.768;2023-05-10T15:27:24;16.70;74.00
38265;DHT22;24062;47.480;8.768;2023-05-10T15:29:51;16.90;73.20
38265;DHT22;24062;47.480;8.768;2023-05-10T15:32:18;17.00;73.60
38265;DHT22;24062;47.480;8.768;2023-05-10T15:34:45;17.10;73.40
38265;DHT22;24062;47.480;8.768;2023-05-10T15:37:12;17.10;73.70
38265;DHT22;24062;47.480;8.768;2023-05-10T15:39:40;17.40;74.90
38265;DHT22;24062;47.480;8.768;2023-05-10T15:42:07;17.50;74.10